^^

Meteo Aereoporti Centro-Italia

 

 
LIRZ - Perugia S.Egidio (208 m.)
Dati ricevuti: 18/04/2021 12:50
Poco nuvoloso
Poco nuvoloso
 Vento da SW
Vento: SW 9 km/h
TEMPERATURA: 15°C
P.to di Rugiada: 0°C
Umidità: 36%
Pressione: 1013 hPa
Nuvole: Poco nuvoloso
Dettagli Nuvole: Poco nuvoloso 1737 m
Poco nuvoloso 2408 m
2021/04/18 10:50 LIRZ 181050Z AUTO 23005KT 170V280 //// // SCT057/// SCT079/// 15/00 Q1013
 
LIPY - Ancona Falconara (12 m.)
Dati ricevuti: 18/04/2021 12:50
Molto nuvoloso
Molto nuvoloso
 Vento da N
Vento: N 19 km/h
TEMPERATURA: 13°C
P.to di Rugiada: 7°C
Umidità: 67%
Pressione: 1015 hPa
Nuvole: Molto nuvoloso
Visibilità: 10 km
Dettagli Nuvole: Molto nuvoloso 5486 m
2021/04/18 10:50 LIPY 181050Z AUTO 35010KT 9999 BKN180/// 13/07 Q1015
 
LIPR - Rimini Miramare (12 m.)
Dati ricevuti: 18/04/2021 12:50
Qualche nuvola
Qualche nuvola
 Vento da N
Vento: N 15 km/h
TEMPERATURA: 13°C
P.to di Rugiada: 5°C
Umidità: 59%
Pressione: 1015 hPa
Nuvole: Qualche nuvola
Visibilità: 10 km
Dettagli Nuvole: Qualche nuvola 914 m
2021/04/18 10:50 LIPR 181050Z 36008KT 330V060 9999 FEW030 13/05 Q1015
 
LIRF - Roma Fiumicino (2 m.)
Dati ricevuti: 18/04/2021 12:50
Rovesci nelle vicinanze, Poco nuvoloso
Rovesci nelle vicinanze, Poco nuvoloso
 Vento da S
Vento: S 15 km/h
TEMPERATURA: 16°C
P.to di Rugiada: 7°C
Umidità: 55%
Pressione: 1013 hPa
Condizioni generali: Rovesci nelle vicinanze
Nuvole: Poco nuvoloso
Visibilità: 10 km
Dettagli Nuvole: Poco nuvoloso 1067 m
2021/04/18 10:50 LIRF 181050Z 18008KT 150V210 9999 VCSH SCT035 16/07 Q1013 TEMPO SHRA
 
LIRA - Roma Ciampino (129 m.)
Dati ricevuti: 18/04/2021 12:50
Poco nuvoloso
Poco nuvoloso
 Vento da SSE
Vento: SSE 20 km/h
TEMPERATURA: 14°C
P.to di Rugiada: 5°C
Umidità: 55%
Pressione: 1013 hPa
Nuvole: Poco nuvoloso
Visibilità: 10 km
Dettagli Nuvole: Qualche nuvola 610 m
Poco nuvoloso 914 m
2021/04/18 10:50 LIRA 181050Z 16011KT 9999 FEW020CB SCT030 14/05 Q1013
 
LIRU - Roma Urbe (17 m.)
Dati ricevuti: 18/04/2021 12:50
Poco nuvoloso
Poco nuvoloso
 Vento da SSE
Vento: SSE 11 km/h
TEMPERATURA: 16°C
P.to di Rugiada: 8°C
Umidità: 59%
Pressione: 1013 hPa
Nuvole: Poco nuvoloso
Visibilità: 10 km
Dettagli Nuvole: Poco nuvoloso 914 m
2021/04/18 10:50 LIRU 181050Z 15006KT 100V230 9999 SCT030 16/08 Q1013
 
LIVF - Frontone (570 m.)
Dati ricevuti: 16/04/2021 21:55
Dati non aggiornati
Sereno
Sereno
 Vento da N
Vento: N 9 km/h
TEMPERATURA: 3°C
Raffreddamento da Vento: 0°C
P.to di Rugiada: -6°C
Umidità: 52%
Pressione: 1015 hPa
Condizioni generali: Sereno
Visibilità: oltre 10 km
2021/04/16 19:55 LIVF 161955Z 01005KT CAVOK 03/M06 Q1015
 
LIRQ - Firenze Peretola (40 m.)
Dati ricevuti: 18/04/2021 12:50
Qualche nuvola
Qualche nuvola
 Vento da ENE
Vento: ENE 17 km/h
TEMPERATURA: 16°C
P.to di Rugiada: 0°C
Umidità: 34%
Pressione: 1014 hPa
Nuvole: Qualche nuvola
Visibilità: 10 km
Dettagli Nuvole: Qualche nuvola 1219 m
2021/04/18 10:50 LIRQ 181050Z 06009KT 010V110 9999 FEW040 16/M00 Q1014
 
LIBP - Pescara (10 m.)
Dati ricevuti: 18/04/2021 12:50
Qualche nuvola
Qualche nuvola
 Vento da NE
Vento: NE 17 km/h
TEMPERATURA: 14°C
P.to di Rugiada: 6°C
Umidità: 59%
Pressione: 1015 hPa
Nuvole: Qualche nuvola
Visibilità: 10 km
Dettagli Nuvole: Qualche nuvola 2682 m
2021/04/18 10:50 LIBP 181050Z AUTO 04009KT 010V080 9999 FEW088/// 14/06 Q1015
 
LIRV - Viterbo (300 m.)
Dati ricevuti: 18/04/2021 12:55
Poco nuvoloso
Poco nuvoloso
 Vento da NE
Vento: NE 7 km/h
TEMPERATURA: 13°C
P.to di Rugiada: 2°C
Umidità: 47%
Pressione: 1013 hPa
Nuvole: Poco nuvoloso
Visibilità: 10 km
Dettagli Nuvole: Poco nuvoloso 762 m
2021/04/18 10:55 LIRV 181055Z 04004KT 9999 SCT025 13/02 Q1013
 
LIQN - Rieti (389 m.)
Dati ricevuti: 18/04/2021 12:50
Sereno
Sereno
 Vento da WNW
Vento: WNW 7 km/h
TEMPERATURA: 13°C
P.to di Rugiada: 0°C
Umidità: 41%
Pressione: 1012 hPa
Condizioni generali: Sereno
Visibilità: oltre 10 km
2021/04/18 10:50 LIQN 181050Z 30004KT CAVOK 13/00 Q1012
 
LIRG - Guidonia -RM- (88 m.)
Dati ricevuti: 16/04/2021 19:55
Dati non aggiornati
Poco nuvoloso
Poco nuvoloso
 Vento da WNW
Vento: WNW 4 km/h
TEMPERATURA: 12°C
P.to di Rugiada: 3°C
Umidità: 54%
Pressione: 1014 hPa
Nuvole: Poco nuvoloso
Visibilità: 10 km
Dettagli Nuvole: Qualche nuvola 914 m
Poco nuvoloso 1219 m
2021/04/16 17:55 LIRG 161755Z 29002KT 9999 FEW030 SCT040 12/03 Q1014
 
LIRK - Terminillo -RI-(1874 m.)
Dati ricevuti: 18/04/2021 12:55

 Vento da WNW
Vento: WNW 7 km/h
TEMPERATURA: 0°C
Raffreddamento da Vento: -3°C
P.to di Rugiada: -4°C
Umidità: 75%
Pressione: 1012 hPa
2021/04/18 10:55 LIRK 181055Z AUTO 29004KT //// 00/M04 Q1012
 
LIPK - Forlì (27 m.)
Dati ricevuti: 18/04/2021 12:50
Poco nuvoloso
Poco nuvoloso
 Vento da direzione variabile
Vento: direzione variabile 4 km/h
TEMPERATURA: 12°C
P.to di Rugiada: 3°C
Umidità: 54%
Pressione: 1016 hPa
Nuvole: Poco nuvoloso
Visibilità: 10 km
Dettagli Nuvole: Qualche nuvola 762 m
Poco nuvoloso 914 m
2021/04/18 10:50 LIPK 181050Z VRB02KT 9999 FEW025TCU SCT030 12/03 Q1016
 
LIRS - Grosseto (5 m.)
Dati ricevuti: 18/04/2021 12:55
Poco nuvoloso
Poco nuvoloso
 Vento da E
Vento: E 6 km/h
TEMPERATURA: 15°C
P.to di Rugiada: 2°C
Umidità: 42%
Pressione: 1013 hPa
Nuvole: Poco nuvoloso
Visibilità: 10 km
Dettagli Nuvole: Poco nuvoloso 914 m
2021/04/18 10:55 LIRS 181055Z 10003KT 9999 SCT030 15/02 Q1013
 
LIRP - Pisa S.Giusto (2 m.)
Dati ricevuti: 18/04/2021 12:45
Poco nuvoloso
Poco nuvoloso
 Vento da W
Vento: W 17 km/h
TEMPERATURA: 13°C
P.to di Rugiada: 3°C
Umidità: 51%
Pressione: 1014 hPa
Nuvole: Poco nuvoloso
Visibilità: 10 km
Dettagli Nuvole: Poco nuvoloso 1219 m
2021/04/18 10:45 LIRP 181045Z 28009KT 9999 SCT040 13/03 Q1014 NOSIG